sensor_id;sensor_type;location;lat;lon;timestamp;temperature;humidity
12166;DHT22;6146;48.128;11.476;2024-03-23T00:55:11;11.60;99.90
12166;DHT22;6146;48.128;11.476;2024-03-23T00:57:37;11.60;99.90
12166;DHT22;6146;48.128;11.476;2024-03-23T01:00:03;11.60;99.90
12166;DHT22;6146;48.128;11.476;2024-03-23T01:02:34;11.60;99.90
12166;DHT22;6146;48.128;11.476;2024-03-23T01:04:59;11.60;99.90
12166;DHT22;6146;48.128;11.476;2024-03-23T01:07:25;11.60;99.90
12166;DHT22;6146;48.128;11.476;2024-03-23T01:09:50;11.60;99.90
12166;DHT22;6146;48.128;11.476;2024-03-23T01:12:17;11.60;99.90
12166;DHT22;6146;48.128;11.476;2024-03-23T01:14:43;11.60;99.90
12166;DHT22;6146;48.128;11.476;2024-03-23T01:17:08;11.50;99.90
12166;DHT22;6146;48.128;11.476;2024-03-23T01:19:34;11.50;99.90
12166;DHT22;6146;48.128;11.476;2024-03-23T01:22:00;11.50;99.90
12166;DHT22;6146;48.128;11.476;2024-03-23T01:24:25;11.50;99.90
12166;DHT22;6146;48.128;11.476;2024-03-23T01:26:51;11.50;99.90
12166;DHT22;6146;48.128;11.476;2024-03-23T01:29:16;11.50;99.90
12166;DHT22;6146;48.128;11.476;2024-03-23T01:31:42;11.50;99.90
12166;DHT22;6146;48.128;11.476;2024-03-23T01:34:07;11.40;99.90
12166;DHT22;6146;48.128;11.476;2024-03-23T01:36:33;11.40;99.90
12166;DHT22;6146;48.128;11.476;2024-03-23T01:38:59;11.40;99.90
12166;DHT22;6146;48.128;11.476;2024-03-23T01:41:24;11.30;99.90
12166;DHT22;6146;48.128;11.476;2024-03-23T01:43:50;11.40;99.90
12166;DHT22;6146;48.128;11.476;2024-03-23T01:46:16;11.30;99.90
12166;DHT22;6146;48.128;11.476;2024-03-23T01:48:42;11.30;99.90
12166;DHT22;6146;48.128;11.476;2024-03-23T01:51:08;11.20;99.90
12166;DHT22;6146;48.128;11.476;2024-03-23T01:53:34;11.20;99.90
12166;DHT22;6146;48.128;11.476;2024-03-23T01:56:00;11.10;99.90
12166;DHT22;6146;48.128;11.476;2024-03-23T01:58:27;11.10;99.90
12166;DHT22;6146;48.128;11.476;2024-03-23T02:00:53;11.00;99.90
12166;DHT22;6146;48.128;11.476;2024-03-23T02:03:25;11.00;99.90
12166;DHT22;6146;48.128;11.476;2024-03-23T02:05:51;10.90;99.90
12166;DHT22;6146;48.128;11.476;2024-03-23T02:08:22;10.90;99.90
12166;DHT22;6146;48.128;11.476;2024-03-23T02:10:49;10.90;99.90
12166;DHT22;6146;48.128;11.476;2024-03-23T02:13:15;10.80;99.90
12166;DHT22;6146;48.128;11.476;2024-03-23T02:15:43;10.70;99.90
12166;DHT22;6146;48.128;11.476;2024-03-23T02:18:10;10.60;99.90
12166;DHT22;6146;48.128;11.476;2024-03-23T02:20:36;10.60;99.90
12166;DHT22;6146;48.128;11.476;2024-03-23T02:23:02;10.50;99.90
12166;DHT22;6146;48.128;11.476;2024-03-23T02:25:27;10.50;99.90
12166;DHT22;6146;48.128;11.476;2024-03-23T02:27:53;10.50;99.90
12166;DHT22;6146;48.128;11.476;2024-03-23T02:30:20;10.40;99.90
12166;DHT22;6146;48.128;11.476;2024-03-23T02:32:46;11.00;99.90
12166;DHT22;6146;48.128;11.476;2024-03-23T02:35:11;10.30;99.90
12166;DHT22;6146;48.128;11.476;2024-03-23T02:37:37;10.20;99.90
12166;DHT22;6146;48.128;11.476;2024-03-23T02:40:03;10.20;99.90
12166;DHT22;6146;48.128;11.476;2024-03-23T02:42:28;10.20;99.90
12166;DHT22;6146;48.128;11.476;2024-03-23T02:44:54;10.10;99.90
12166;DHT22;6146;48.128;11.476;2024-03-23T02:47:19;10.10;99.90
12166;DHT22;6146;48.128;11.476;2024-03-23T02:49:45;10.00;99.90
12166;DHT22;6146;48.128;11.476;2024-03-23T02:52:11;10.00;99.90
12166;DHT22;6146;48.128;11.476;2024-03-23T02:54:36;10.00;99.90
12166;DHT22;6146;48.128;11.476;2024-03-23T02:57:02;10.00;99.90
12166;DHT22;6146;48.128;11.476;2024-03-23T02:59:27;10.00;99.90
12166;DHT22;6146;48.128;11.476;2024-03-23T03:01:53;9.90;99.90
12166;DHT22;6146;48.128;11.476;2024-03-23T03:04:19;9.90;99.90
12166;DHT22;6146;48.128;11.476;2024-03-23T03:06:47;9.90;99.90
12166;DHT22;6146;48.128;11.476;2024-03-23T03:09:13;9.90;99.90
12166;DHT22;6146;48.128;11.476;2024-03-23T03:11:38;9.90;99.90
12166;DHT22;6146;48.128;11.476;2024-03-23T03:14:04;9.90;99.90
12166;DHT22;6146;48.128;11.476;2024-03-23T03:16:32;9.80;99.90
12166;DHT22;6146;48.128;11.476;2024-03-23T03:18:58;9.70;99.90
12166;DHT22;6146;48.128;11.476;2024-03-23T03:21:23;9.60;99.90
12166;DHT22;6146;48.128;11.476;2024-03-23T03:23:49;9.60;99.90
12166;DHT22;6146;48.128;11.476;2024-03-23T03:26:18;9.60;99.90
12166;DHT22;6146;48.128;11.476;2024-03-23T03:28:44;9.60;99.90
12166;DHT22;6146;48.128;11.476;2024-03-23T03:31:14;9.60;99.90
12166;DHT22;6146;48.128;11.476;2024-03-23T03:33:40;9.70;99.90
12166;DHT22;6146;48.128;11.476;2024-03-23T03:36:05;9.70;99.90
12166;DHT22;6146;48.128;11.476;2024-03-23T03:38:31;9.70;99.90
12166;DHT22;6146;48.128;11.476;2024-03-23T03:40:57;9.80;99.90
12166;DHT22;6146;48.128;11.476;2024-03-23T03:43:24;9.80;99.90
12166;DHT22;6146;48.128;11.476;2024-03-23T03:45:57;9.80;99.90
12166;DHT22;6146;48.128;11.476;2024-03-23T03:48:22;9.80;99.90
12166;DHT22;6146;48.128;11.476;2024-03-23T03:50:49;9.80;99.90
12166;DHT22;6146;48.128;11.476;2024-03-23T03:53:14;9.80;99.90
12166;DHT22;6146;48.128;11.476;2024-03-23T03:55:40;9.90;99.90
12166;DHT22;6146;48.128;11.476;2024-03-23T03:58:05;9.90;99.90
12166;DHT22;6146;48.128;11.476;2024-03-23T04:00:31;10.00;99.90
12166;DHT22;6146;48.128;11.476;2024-03-23T04:02:57;10.00;99.90
12166;DHT22;6146;48.128;11.476;2024-03-23T04:05:23;10.00;99.90
12166;DHT22;6146;48.128;11.476;2024-03-23T04:07:48;10.00;99.90
12166;DHT22;6146;48.128;11.476;2024-03-23T04:10:14;10.00;99.90
12166;DHT22;6146;48.128;11.476;2024-03-23T04:12:41;10.10;99.90
12166;DHT22;6146;48.128;11.476;2024-03-23T04:15:07;10.20;99.90
12166;DHT22;6146;48.128;11.476;2024-03-23T04:17:33;10.20;99.90
12166;DHT22;6146;48.128;11.476;2024-03-23T04:20:00;10.20;99.90
12166;DHT22;6146;48.128;11.476;2024-03-23T04:22:26;10.20;99.90
12166;DHT22;6146;48.128;11.476;2024-03-23T04:24:58;10.20;99.90
12166;DHT22;6146;48.128;11.476;2024-03-23T04:27:24;10.20;99.90
12166;DHT22;6146;48.128;11.476;2024-03-23T04:29:50;10.20;99.90
12166;DHT22;6146;48.128;11.476;2024-03-23T04:32:16;10.30;99.90
12166;DHT22;6146;48.128;11.476;2024-03-23T04:34:43;10.30;99.90
12166;DHT22;6146;48.128;11.476;2024-03-23T04:37:09;10.30;99.90
12166;DHT22;6146;48.128;11.476;2024-03-23T04:39:36;10.40;99.90
12166;DHT22;6146;48.128;11.476;2024-03-23T04:42:02;10.50;99.90
12166;DHT22;6146;48.128;11.476;2024-03-23T04:44:28;10.40;99.90
12166;DHT22;6146;48.128;11.476;2024-03-23T04:46:53;10.50;99.90
12166;DHT22;6146;48.128;11.476;2024-03-23T04:49:19;10.50;99.90
12166;DHT22;6146;48.128;11.476;2024-03-23T04:51:44;10.60;99.90
12166;DHT22;6146;48.128;11.476;2024-03-23T04:54:14;10.60;99.90
12166;DHT22;6146;48.128;11.476;2024-03-23T04:56:41;10.60;99.90
12166;DHT22;6146;48.128;11.476;2024-03-23T04:59:06;10.60;99.90
12166;DHT22;6146;48.128;11.476;2024-03-23T05:01:32;10.60;99.90
12166;DHT22;6146;48.128;11.476;2024-03-23T05:03:58;10.60;99.90
12166;DHT22;6146;48.128;11.476;2024-03-23T05:06:27;10.70;99.90
12166;DHT22;6146;48.128;11.476;2024-03-23T05:08:52;10.70;99.90
12166;DHT22;6146;48.128;11.476;2024-03-23T05:11:18;10.80;99.90
12166;DHT22;6146;48.128;11.476;2024-03-23T05:13:44;10.90;99.90
12166;DHT22;6146;48.128;11.476;2024-03-23T05:16:09;10.90;99.90
12166;DHT22;6146;48.128;11.476;2024-03-23T05:18:35;11.00;99.90
12166;DHT22;6146;48.128;11.476;2024-03-23T05:21:01;11.00;99.90
12166;DHT22;6146;48.128;11.476;2024-03-23T05:23:28;11.00;99.90
12166;DHT22;6146;48.128;11.476;2024-03-23T05:25:54;11.00;99.90
12166;DHT22;6146;48.128;11.476;2024-03-23T05:28:20;11.10;99.90
12166;DHT22;6146;48.128;11.476;2024-03-23T05:30:55;11.10;99.90
12166;DHT22;6146;48.128;11.476;2024-03-23T05:33:22;11.20;99.90
12166;DHT22;6146;48.128;11.476;2024-03-23T05:36:00;11.30;99.90
12166;DHT22;6146;48.128;11.476;2024-03-23T05:38:26;11.30;99.90
12166;DHT22;6146;48.128;11.476;2024-03-23T05:40:55;11.40;99.90
12166;DHT22;6146;48.128;11.476;2024-03-23T05:43:21;11.50;99.90
12166;DHT22;6146;48.128;11.476;2024-03-23T05:45:56;11.60;99.90
12166;DHT22;6146;48.128;11.476;2024-03-23T05:48:22;11.60;99.90
12166;DHT22;6146;48.128;11.476;2024-03-23T05:50:49;11.70;99.90
12166;DHT22;6146;48.128;11.476;2024-03-23T05:53:15;11.70;99.90
12166;DHT22;6146;48.128;11.476;2024-03-23T05:55:41;11.80;99.90
12166;DHT22;6146;48.128;11.476;2024-03-23T05:58:07;12.20;99.90
12166;DHT22;6146;48.128;11.476;2024-03-23T06:00:33;12.70;99.90
12166;DHT22;6146;48.128;11.476;2024-03-23T06:02:58;13.00;99.90
12166;DHT22;6146;48.128;11.476;2024-03-23T06:05:24;13.00;99.90
12166;DHT22;6146;48.128;11.476;2024-03-23T06:07:49;13.00;99.90
12166;DHT22;6146;48.128;11.476;2024-03-23T06:10:15;13.00;99.90
12166;DHT22;6146;48.128;11.476;2024-03-23T06:12:41;13.00;99.90
12166;DHT22;6146;48.128;11.476;2024-03-23T06:15:07;13.00;99.90
12166;DHT22;6146;48.128;11.476;2024-03-23T06:17:36;13.00;99.90
12166;DHT22;6146;48.128;11.476;2024-03-23T06:20:01;13.00;99.90
12166;DHT22;6146;48.128;11.476;2024-03-23T06:22:27;12.90;99.90
12166;DHT22;6146;48.128;11.476;2024-03-23T06:24:53;12.90;99.90
12166;DHT22;6146;48.128;11.476;2024-03-23T06:27:18;12.90;99.90
12166;DHT22;6146;48.128;11.476;2024-03-23T06:29:44;13.00;99.90
12166;DHT22;6146;48.128;11.476;2024-03-23T06:32:09;13.00;99.90
12166;DHT22;6146;48.128;11.476;2024-03-23T06:34:35;13.10;99.90
12166;DHT22;6146;48.128;11.476;2024-03-23T06:37:01;13.20;99.90
12166;DHT22;6146;48.128;11.476;2024-03-23T06:39:27;13.40;99.90
12166;DHT22;6146;48.128;11.476;2024-03-23T06:41:53;13.60;99.90
12166;DHT22;6146;48.128;11.476;2024-03-23T06:44:20;13.70;99.90
12166;DHT22;6146;48.128;11.476;2024-03-23T06:46:46;13.70;99.90
12166;DHT22;6146;48.128;11.476;2024-03-23T06:49:12;13.80;99.90
12166;DHT22;6146;48.128;11.476;2024-03-23T06:51:37;14.00;99.90
12166;DHT22;6146;48.128;11.476;2024-03-23T06:54:03;14.20;99.90
12166;DHT22;6146;48.128;11.476;2024-03-23T06:56:29;14.30;99.90
12166;DHT22;6146;48.128;11.476;2024-03-23T06:58:56;14.50;99.90
12166;DHT22;6146;48.128;11.476;2024-03-23T07:01:21;14.80;99.90
12166;DHT22;6146;48.128;11.476;2024-03-23T07:03:47;15.20;99.90
12166;DHT22;6146;48.128;11.476;2024-03-23T07:06:12;15.60;99.90
12166;DHT22;6146;48.128;11.476;2024-03-23T07:08:38;15.90;99.90
12166;DHT22;6146;48.128;11.476;2024-03-23T07:11:03;16.10;99.90
12166;DHT22;6146;48.128;11.476;2024-03-23T07:13:30;16.10;99.90
12166;DHT22;6146;48.128;11.476;2024-03-23T07:15:56;16.10;99.90
12166;DHT22;6146;48.128;11.476;2024-03-23T07:18:22;16.10;99.90
12166;DHT22;6146;48.128;11.476;2024-03-23T07:20:55;16.00;99.90
12166;DHT22;6146;48.128;11.476;2024-03-23T07:23:25;15.90;99.90
12166;DHT22;6146;48.128;11.476;2024-03-23T07:26:00;16.00;99.90
12166;DHT22;6146;48.128;11.476;2024-03-23T07:28:26;16.00;99.90
12166;DHT22;6146;48.128;11.476;2024-03-23T07:31:07;15.90;99.90
12166;DHT22;6146;48.128;11.476;2024-03-23T07:33:37;15.90;99.90
12166;DHT22;6146;48.128;11.476;2024-03-23T07:36:03;16.00;99.90
12166;DHT22;6146;48.128;11.476;2024-03-23T07:38:29;15.90;99.90
12166;DHT22;6146;48.128;11.476;2024-03-23T07:41:12;15.60;99.90
12166;DHT22;6146;48.128;11.476;2024-03-23T07:43:40;15.10;99.90
12166;DHT22;6146;48.128;11.476;2024-03-23T07:46:09;14.40;99.90
12166;DHT22;6146;48.128;11.476;2024-03-23T07:48:34;13.70;99.90
12166;DHT22;6146;48.128;11.476;2024-03-23T07:51:08;13.20;99.90
12166;DHT22;6146;48.128;11.476;2024-03-23T07:53:35;12.80;99.90
12166;DHT22;6146;48.128;11.476;2024-03-23T07:56:03;12.30;99.90
12166;DHT22;6146;48.128;11.476;2024-03-23T07:58:29;12.00;99.90
12166;DHT22;6146;48.128;11.476;2024-03-23T08:00:56;11.80;99.90
12166;DHT22;6146;48.128;11.476;2024-03-23T08:03:22;11.60;99.90
12166;DHT22;6146;48.128;11.476;2024-03-23T08:05:48;11.30;99.90
12166;DHT22;6146;48.128;11.476;2024-03-23T08:08:14;11.10;99.90
12166;DHT22;6146;48.128;11.476;2024-03-23T08:10:50;11.00;99.90
12166;DHT22;6146;48.128;11.476;2024-03-23T08:13:15;10.90;99.90
12166;DHT22;6146;48.128;11.476;2024-03-23T08:15:41;10.80;99.90
12166;DHT22;6146;48.128;11.476;2024-03-23T08:18:07;10.70;99.90
12166;DHT22;6146;48.128;11.476;2024-03-23T08:20:33;10.60;99.90
12166;DHT22;6146;48.128;11.476;2024-03-23T08:22:58;10.60;99.90
12166;DHT22;6146;48.128;11.476;2024-03-23T08:25:24;10.50;99.90
12166;DHT22;6146;48.128;11.476;2024-03-23T08:27:49;10.50;99.90
12166;DHT22;6146;48.128;11.476;2024-03-23T08:30:15;10.50;99.90
12166;DHT22;6146;48.128;11.476;2024-03-23T08:32:41;10.40;99.90
12166;DHT22;6146;48.128;11.476;2024-03-23T08:35:08;10.20;99.90
12166;DHT22;6146;48.128;11.476;2024-03-23T08:37:33;10.00;99.90
12166;DHT22;6146;48.128;11.476;2024-03-23T08:39:59;9.80;99.90
12166;DHT22;6146;48.128;11.476;2024-03-23T08:42:24;9.70;99.90
12166;DHT22;6146;48.128;11.476;2024-03-23T08:44:50;9.50;99.90
12166;DHT22;6146;48.128;11.476;2024-03-23T08:47:16;9.40;99.90
12166;DHT22;6146;48.128;11.476;2024-03-23T08:49:41;9.40;99.90
12166;DHT22;6146;48.128;11.476;2024-03-23T08:52:07;9.30;99.90
12166;DHT22;6146;48.128;11.476;2024-03-23T08:54:33;9.20;99.90
12166;DHT22;6146;48.128;11.476;2024-03-23T08:56:59;9.10;99.90
12166;DHT22;6146;48.128;11.476;2024-03-23T08:59:25;9.10;99.90
12166;DHT22;6146;48.128;11.476;2024-03-23T09:01:51;9.20;99.90
12166;DHT22;6146;48.128;11.476;2024-03-23T09:04:16;9.20;99.90
12166;DHT22;6146;48.128;11.476;2024-03-23T09:06:45;9.20;99.90
12166;DHT22;6146;48.128;11.476;2024-03-23T09:09:10;9.20;99.90
12166;DHT22;6146;48.128;11.476;2024-03-23T09:11:36;9.20;99.90
12166;DHT22;6146;48.128;11.476;2024-03-23T09:14:03;9.20;99.90
12166;DHT22;6146;48.128;11.476;2024-03-23T09:16:29;9.10;99.90
12166;DHT22;6146;48.128;11.476;2024-03-23T09:18:54;9.20;99.90
12166;DHT22;6146;48.128;11.476;2024-03-23T09:21:20;9.20;99.90
12166;DHT22;6146;48.128;11.476;2024-03-23T09:23:45;9.30;99.90
12166;DHT22;6146;48.128;11.476;2024-03-23T09:26:11;9.40;99.90
12166;DHT22;6146;48.128;11.476;2024-03-23T09:28:37;9.30;99.90
12166;DHT22;6146;48.128;11.476;2024-03-23T09:31:07;9.30;99.90
12166;DHT22;6146;48.128;11.476;2024-03-23T09:33:36;9.20;99.90
12166;DHT22;6146;48.128;11.476;2024-03-23T09:36:05;9.20;99.90
12166;DHT22;6146;48.128;11.476;2024-03-23T09:38:31;9.10;99.90
12166;DHT22;6146;48.128;11.476;2024-03-23T09:40:57;9.00;99.90
12166;DHT22;6146;48.128;11.476;2024-03-23T09:43:23;8.90;99.90
12166;DHT22;6146;48.128;11.476;2024-03-23T09:45:49;8.80;99.90
12166;DHT22;6146;48.128;11.476;2024-03-23T09:50:51;8.50;99.90
12166;DHT22;6146;48.128;11.476;2024-03-23T09:53:16;8.50;99.90
12166;DHT22;6146;48.128;11.476;2024-03-23T09:55:43;8.50;99.90
12166;DHT22;6146;48.128;11.476;2024-03-23T09:58:13;8.30;99.90
12166;DHT22;6146;48.128;11.476;2024-03-23T10:00:39;8.20;99.90
12166;DHT22;6146;48.128;11.476;2024-03-23T10:03:05;8.10;99.90
12166;DHT22;6146;48.128;11.476;2024-03-23T10:05:32;8.10;99.90
12166;DHT22;6146;48.128;11.476;2024-03-23T10:08:32;8.20;99.90
12166;DHT22;6146;48.128;11.476;2024-03-23T10:10:51;8.20;99.90
12166;DHT22;6146;48.128;11.476;2024-03-23T10:13:27;8.10;99.90
12166;DHT22;6146;48.128;11.476;2024-03-23T10:15:57;8.10;99.90
12166;DHT22;6146;48.128;11.476;2024-03-23T10:18:23;8.20;99.90
12166;DHT22;6146;48.128;11.476;2024-03-23T10:23:33;8.30;99.90
12166;DHT22;6146;48.128;11.476;2024-03-23T10:26:21;8.30;99.90
12166;DHT22;6146;48.128;11.476;2024-03-23T10:31:34;8.30;99.90
12166;DHT22;6146;48.128;11.476;2024-03-23T10:34:02;8.40;99.90
12166;DHT22;6146;48.128;11.476;2024-03-23T10:36:29;8.40;99.90
12166;DHT22;6146;48.128;11.476;2024-03-23T10:38:56;8.30;99.90
12166;DHT22;6146;48.128;11.476;2024-03-23T10:41:26;8.30;99.90
12166;DHT22;6146;48.128;11.476;2024-03-23T10:43:53;8.10;99.90
12166;DHT22;6146;48.128;11.476;2024-03-23T10:46:20;7.90;99.90
12166;DHT22;6146;48.128;11.476;2024-03-23T10:48:46;7.70;99.90
12166;DHT22;6146;48.128;11.476;2024-03-23T10:51:13;7.70;99.90
12166;DHT22;6146;48.128;11.476;2024-03-23T10:53:39;7.60;99.90
12166;DHT22;6146;48.128;11.476;2024-03-23T10:56:06;7.60;99.90
12166;DHT22;6146;48.128;11.476;2024-03-23T10:58:36;7.60;99.90
12166;DHT22;6146;48.128;11.476;2024-03-23T11:01:02;7.70;99.90
12166;DHT22;6146;48.128;11.476;2024-03-23T11:03:36;7.80;99.90
12166;DHT22;6146;48.128;11.476;2024-03-23T11:06:03;8.00;99.90
12166;DHT22;6146;48.128;11.476;2024-03-23T11:08:34;8.00;99.90
12166;DHT22;6146;48.128;11.476;2024-03-23T11:11:20;8.10;99.90
12166;DHT22;6146;48.128;11.476;2024-03-23T11:13:55;8.10;99.90
12166;DHT22;6146;48.128;11.476;2024-03-23T11:16:28;8.10;99.90
12166;DHT22;6146;48.128;11.476;2024-03-23T11:19:35;8.20;99.90
12166;DHT22;6146;48.128;11.476;2024-03-23T11:22:04;8.30;99.90
12166;DHT22;6146;48.128;11.476;2024-03-23T11:24:33;8.30;99.90
12166;DHT22;6146;48.128;11.476;2024-03-23T11:27:00;8.40;99.90
12166;DHT22;6146;48.128;11.476;2024-03-23T11:29:29;8.50;99.90
12166;DHT22;6146;48.128;11.476;2024-03-23T11:31:55;8.70;99.90
12166;DHT22;6146;48.128;11.476;2024-03-23T11:34:22;8.80;99.90
12166;DHT22;6146;48.128;11.476;2024-03-23T11:36:47;8.70;99.90
12166;DHT22;6146;48.128;11.476;2024-03-23T11:39:18;8.90;99.90
12166;DHT22;6146;48.128;11.476;2024-03-23T11:41:51;8.90;99.90
12166;DHT22;6146;48.128;11.476;2024-03-23T11:44:21;9.00;99.90
12166;DHT22;6146;48.128;11.476;2024-03-23T11:46:50;9.20;99.90
12166;DHT22;6146;48.128;11.476;2024-03-23T11:49:23;9.20;99.90
12166;DHT22;6146;48.128;11.476;2024-03-23T11:51:49;9.30;99.90
12166;DHT22;6146;48.128;11.476;2024-03-23T11:54:15;9.40;99.90
12166;DHT22;6146;48.128;11.476;2024-03-23T11:56:40;9.60;99.90
12166;DHT22;6146;48.128;11.476;2024-03-23T11:59:06;9.70;99.90
12166;DHT22;6146;48.128;11.476;2024-03-23T12:01:33;9.70;99.90
12166;DHT22;6146;48.128;11.476;2024-03-23T12:03:58;9.60;99.90
12166;DHT22;6146;48.128;11.476;2024-03-23T12:06:24;9.80;99.90
12166;DHT22;6146;48.128;11.476;2024-03-23T12:08:51;9.80;99.90
12166;DHT22;6146;48.128;11.476;2024-03-23T12:11:17;9.60;99.90
12166;DHT22;6146;48.128;11.476;2024-03-23T12:13:44;9.50;99.90
12166;DHT22;6146;48.128;11.476;2024-03-23T12:18:44;9.10;99.90
12166;DHT22;6146;48.128;11.476;2024-03-23T12:21:10;9.00;99.90
12166;DHT22;6146;48.128;11.476;2024-03-23T12:23:38;9.00;99.90
12166;DHT22;6146;48.128;11.476;2024-03-23T12:26:04;9.00;99.90
12166;DHT22;6146;48.128;11.476;2024-03-23T12:28:29;9.00;99.90
12166;DHT22;6146;48.128;11.476;2024-03-23T12:30:55;9.20;99.90
12166;DHT22;6146;48.128;11.476;2024-03-23T12:33:21;9.20;99.90
12166;DHT22;6146;48.128;11.476;2024-03-23T12:35:47;9.20;99.90
12166;DHT22;6146;48.128;11.476;2024-03-23T12:38:13;9.20;99.90
12166;DHT22;6146;48.128;11.476;2024-03-23T12:40:38;9.30;99.90
12166;DHT22;6146;48.128;11.476;2024-03-23T12:43:04;9.40;99.90
12166;DHT22;6146;48.128;11.476;2024-03-23T12:45:29;9.50;99.90
12166;DHT22;6146;48.128;11.476;2024-03-23T12:47:55;9.60;99.90
12166;DHT22;6146;48.128;11.476;2024-03-23T12:50:21;9.40;99.90
12166;DHT22;6146;48.128;11.476;2024-03-23T12:52:47;9.40;99.90
12166;DHT22;6146;48.128;11.476;2024-03-23T12:55:13;9.20;99.90
12166;DHT22;6146;48.128;11.476;2024-03-23T12:57:38;9.40;99.90
12166;DHT22;6146;48.128;11.476;2024-03-23T13:00:05;9.70;99.90
12166;DHT22;6146;48.128;11.476;2024-03-23T13:02:31;9.80;99.90
12166;DHT22;6146;48.128;11.476;2024-03-23T13:04:57;10.20;99.90
12166;DHT22;6146;48.128;11.476;2024-03-23T13:07:23;10.40;99.90
12166;DHT22;6146;48.128;11.476;2024-03-23T13:09:52;10.40;99.90
12166;DHT22;6146;48.128;11.476;2024-03-23T13:12:19;10.40;99.90
12166;DHT22;6146;48.128;11.476;2024-03-23T13:14:46;10.30;99.90
12166;DHT22;6146;48.128;11.476;2024-03-23T13:17:11;10.00;99.90
12166;DHT22;6146;48.128;11.476;2024-03-23T13:19:37;9.90;99.90
12166;DHT22;6146;48.128;11.476;2024-03-23T13:22:03;9.70;99.90
12166;DHT22;6146;48.128;11.476;2024-03-23T13:24:29;9.70;99.90
12166;DHT22;6146;48.128;11.476;2024-03-23T13:26:56;9.50;99.90
12166;DHT22;6146;48.128;11.476;2024-03-23T13:29:22;9.50;99.90
12166;DHT22;6146;48.128;11.476;2024-03-23T13:31:49;9.50;99.90
12166;DHT22;6146;48.128;11.476;2024-03-23T13:34:15;9.50;99.90
12166;DHT22;6146;48.128;11.476;2024-03-23T13:36:44;9.50;99.90
12166;DHT22;6146;48.128;11.476;2024-03-23T13:39:11;9.50;99.90
12166;DHT22;6146;48.128;11.476;2024-03-23T13:41:40;9.50;99.90
12166;DHT22;6146;48.128;11.476;2024-03-23T13:44:06;9.70;99.90
12166;DHT22;6146;48.128;11.476;2024-03-23T13:46:33;9.90;99.90
12166;DHT22;6146;48.128;11.476;2024-03-23T13:48:59;9.80;99.90
12166;DHT22;6146;48.128;11.476;2024-03-23T13:51:25;9.60;99.90
12166;DHT22;6146;48.128;11.476;2024-03-23T13:53:53;9.50;99.90
12166;DHT22;6146;48.128;11.476;2024-03-23T13:56:19;9.30;99.90
12166;DHT22;6146;48.128;11.476;2024-03-23T13:58:45;9.20;99.90
12166;DHT22;6146;48.128;11.476;2024-03-23T14:01:15;8.70;99.90
12166;DHT22;6146;48.128;11.476;2024-03-23T14:03:42;8.00;99.90
12166;DHT22;6146;48.128;11.476;2024-03-23T14:06:08;7.60;99.90
12166;DHT22;6146;48.128;11.476;2024-03-23T14:08:38;7.30;99.90
12166;DHT22;6146;48.128;11.476;2024-03-23T14:11:08;7.10;99.90
12166;DHT22;6146;48.128;11.476;2024-03-23T14:13:36;6.90;99.90
12166;DHT22;6146;48.128;11.476;2024-03-23T14:16:02;6.90;99.90
12166;DHT22;6146;48.128;11.476;2024-03-23T14:18:28;6.90;99.90
12166;DHT22;6146;48.128;11.476;2024-03-23T14:21:00;6.90;99.90
12166;DHT22;6146;48.128;11.476;2024-03-23T14:23:27;7.10;99.90
12166;DHT22;6146;48.128;11.476;2024-03-23T14:25:58;7.20;99.90
12166;DHT22;6146;48.128;11.476;2024-03-23T14:28:24;7.30;99.90
12166;DHT22;6146;48.128;11.476;2024-03-23T14:30:50;7.40;99.90
12166;DHT22;6146;48.128;11.476;2024-03-23T14:33:16;7.40;99.90
12166;DHT22;6146;48.128;11.476;2024-03-23T14:35:42;7.40;99.90
12166;DHT22;6146;48.128;11.476;2024-03-23T14:38:08;7.50;99.90
12166;DHT22;6146;48.128;11.476;2024-03-23T14:40:33;7.50;99.90
12166;DHT22;6146;48.128;11.476;2024-03-23T14:42:59;7.40;99.90
12166;DHT22;6146;48.128;11.476;2024-03-23T14:45:25;7.30;99.90
12166;DHT22;6146;48.128;11.476;2024-03-23T14:47:51;7.20;99.90
12166;DHT22;6146;48.128;11.476;2024-03-23T14:50:17;7.10;99.90
12166;DHT22;6146;48.128;11.476;2024-03-23T14:52:46;7.10;99.90
12166;DHT22;6146;48.128;11.476;2024-03-23T14:55:12;7.10;99.90
12166;DHT22;6146;48.128;11.476;2024-03-23T14:57:38;7.10;99.90
12166;DHT22;6146;48.128;11.476;2024-03-23T15:00:10;7.00;99.90
12166;DHT22;6146;48.128;11.476;2024-03-23T15:02:39;6.60;99.90
12166;DHT22;6146;48.128;11.476;2024-03-23T15:05:05;6.40;99.90
12166;DHT22;6146;48.128;11.476;2024-03-23T15:07:37;6.20;99.90
12166;DHT22;6146;48.128;11.476;2024-03-23T15:10:06;6.00;99.90
12166;DHT22;6146;48.128;11.476;2024-03-23T15:12:33;5.90;99.90
12166;DHT22;6146;48.128;11.476;2024-03-23T15:14:59;5.90;99.90
12166;DHT22;6146;48.128;11.476;2024-03-23T15:17:25;5.80;99.90
12166;DHT22;6146;48.128;11.476;2024-03-23T15:19:51;5.70;99.90
12166;DHT22;6146;48.128;11.476;2024-03-23T15:22:18;5.80;99.90
12166;DHT22;6146;48.128;11.476;2024-03-23T15:24:43;5.80;99.90
12166;DHT22;6146;48.128;11.476;2024-03-23T15:27:09;5.90;99.90
12166;DHT22;6146;48.128;11.476;2024-03-23T15:29:34;5.90;99.90
12166;DHT22;6146;48.128;11.476;2024-03-23T15:32:02;6.10;99.90
12166;DHT22;6146;48.128;11.476;2024-03-23T15:34:29;6.30;99.90
12166;DHT22;6146;48.128;11.476;2024-03-23T15:36:54;6.50;99.90
12166;DHT22;6146;48.128;11.476;2024-03-23T15:39:20;6.50;99.90
12166;DHT22;6146;48.128;11.476;2024-03-23T15:41:47;6.50;99.90
12166;DHT22;6146;48.128;11.476;2024-03-23T15:44:13;6.60;99.90
12166;DHT22;6146;48.128;11.476;2024-03-23T15:46:39;6.50;99.90
12166;DHT22;6146;48.128;11.476;2024-03-23T15:49:05;6.60;99.90
12166;DHT22;6146;48.128;11.476;2024-03-23T15:51:31;6.60;99.90
12166;DHT22;6146;48.128;11.476;2024-03-23T15:53:59;6.80;99.90
12166;DHT22;6146;48.128;11.476;2024-03-23T15:56:24;7.00;99.90
12166;DHT22;6146;48.128;11.476;2024-03-23T15:58:50;7.00;99.90
12166;DHT22;6146;48.128;11.476;2024-03-23T16:01:16;7.10;99.90
12166;DHT22;6146;48.128;11.476;2024-03-23T16:03:41;7.30;99.90
12166;DHT22;6146;48.128;11.476;2024-03-23T16:06:07;7.30;99.90
12166;DHT22;6146;48.128;11.476;2024-03-23T16:08:34;8.40;99.90
12166;DHT22;6146;48.128;11.476;2024-03-23T16:11:03;7.30;99.90
12166;DHT22;6146;48.128;11.476;2024-03-23T16:13:30;7.30;99.90
12166;DHT22;6146;48.128;11.476;2024-03-23T16:15:56;7.10;99.90
12166;DHT22;6146;48.128;11.476;2024-03-23T16:18:23;7.00;99.90
12166;DHT22;6146;48.128;11.476;2024-03-23T16:21:07;6.80;99.90
12166;DHT22;6146;48.128;11.476;2024-03-23T16:23:34;6.80;99.90
12166;DHT22;6146;48.128;11.476;2024-03-23T16:26:02;6.80;99.90
12166;DHT22;6146;48.128;11.476;2024-03-23T16:28:32;6.80;99.90
12166;DHT22;6146;48.128;11.476;2024-03-23T16:31:02;6.80;99.90
12166;DHT22;6146;48.128;11.476;2024-03-23T16:33:29;6.80;99.90
12166;DHT22;6146;48.128;11.476;2024-03-23T16:35:57;6.70;99.90
12166;DHT22;6146;48.128;11.476;2024-03-23T16:38:23;6.70;99.90
12166;DHT22;6146;48.128;11.476;2024-03-23T16:40:56;6.70;99.90
12166;DHT22;6146;48.128;11.476;2024-03-23T16:43:21;6.70;99.90